Kirtley, Wyoming
Current Conditions -  °F | °C
As of 8:15 AM on Wednesday 22 Oct 2014 (Local Time) from KGUR Reporting Station
Clear Clear  
Wind Chill: 54°   Ceiling: Unl
Heat Index: 54°   Visibility: 10mi
Dew Point: 32°   Wind: 3mph
Humidity: 43%   Direction: 290°WNW
Pressure: 30.08"   Gusts: NA
Location:  42.8183°N, 104.414°W
Report Text: KGUR 221415Z AUTO 29003KT 10SM CLR 12/00 A3008 RMK AO2 T01230000 PWINO
Loading
Personal Weather Stations






























Interactive Weather Map
Tropical Storm Tracking
New forecast layout! Learn more

10-Day Weather Forecast

Advertisements
Track Severe Weather on mobile